createdAt,value
2022-08-02T00:00:10.316Z,92.82
2022-08-02T00:02:37.368Z,92.86
2022-08-02T00:05:05.016Z,93.39
2022-08-02T00:07:31.612Z,93.78
2022-08-02T00:09:58.180Z,93.59
2022-08-02T00:12:25.002Z,93.17
2022-08-02T00:14:51.855Z,93.08
2022-08-02T00:17:18.552Z,92.78
2022-08-02T00:19:45.897Z,95.08
2022-08-02T00:22:13.054Z,95.64
2022-08-02T00:24:40.203Z,95.24
2022-08-02T00:27:09.614Z,93.62
2022-08-02T00:29:50.491Z,94.30
2022-08-02T00:32:19.482Z,95.66
2022-08-02T00:34:46.056Z,95.90
2022-08-02T00:37:12.628Z,94.88
2022-08-02T00:39:39.249Z,95.48
2022-08-02T00:42:06.036Z,95.77
2022-08-02T00:44:32.628Z,94.78
2022-08-02T00:46:59.235Z,94.32
2022-08-02T00:49:25.957Z,95.27
2022-08-02T00:51:52.665Z,95.24
2022-08-02T00:54:20.001Z,95.15
2022-08-02T00:56:49.634Z,95.71
2022-08-02T00:59:18.391Z,96.69
2022-08-02T01:01:57.211Z,97.47
2022-08-02T01:04:29.703Z,96.99
2022-08-02T01:06:57.642Z,98.42
2022-08-02T01:09:24.280Z,97.83
2022-08-02T01:11:50.897Z,98.00
2022-08-02T01:14:18.022Z,97.16
2022-08-02T01:17:06.196Z,97.45
2022-08-02T01:20:01.737Z,97.47
2022-08-02T01:23:02.384Z,96.71
2022-08-02T01:26:01.878Z,97.02
2022-08-02T01:28:36.810Z,97.44
2022-08-02T01:31:10.865Z,96.36
2022-08-02T01:33:43.293Z,97.16
2022-08-02T01:36:13.069Z,97.70
2022-08-02T01:38:43.970Z,98.52
2022-08-02T01:41:15.493Z,98.98
2022-08-02T01:43:42.630Z,98.93
2022-08-02T01:46:11.077Z,99.39
2022-08-02T01:48:38.494Z,97.92
2022-08-02T01:51:05.241Z,97.96
2022-08-02T01:53:31.867Z,98.25
2022-08-02T01:55:59.837Z,97.57
2022-08-02T01:58:28.535Z,97.37
2022-08-02T02:00:58.177Z,98.13
2022-08-02T02:03:27.375Z,97.98
2022-08-02T02:05:56.294Z,98.62
2022-08-02T02:08:43.813Z,100.00
2022-08-02T02:12:11.804Z,98.79
2022-08-02T02:14:01.530Z,100.00
2022-08-02T02:16:28.888Z,99.07
2022-08-02T02:18:55.655Z,99.84
2022-08-02T02:21:22.370Z,100.00
2022-08-02T02:23:50.721Z,100.00
2022-08-02T02:26:20.885Z,100.00
2022-08-02T02:29:00.074Z,100.00
2022-08-02T02:31:26.865Z,100.00
2022-08-02T02:33:59.616Z,100.00
2022-08-02T02:36:26.272Z,100.00
2022-08-02T02:38:53.232Z,100.00
2022-08-02T02:41:21.237Z,100.00
2022-08-02T02:43:48.066Z,100.00
2022-08-02T02:46:17.096Z,100.00
2022-08-02T02:48:44.026Z,100.00
2022-08-02T02:51:13.991Z,100.00
2022-08-02T02:54:33.515Z,100.00
2022-08-02T02:56:28.773Z,100.00
2022-08-02T02:58:55.543Z,100.00
2022-08-02T03:01:56.018Z,100.00
2022-08-02T03:04:15.930Z,100.00
2022-08-02T03:06:42.595Z,100.00
2022-08-02T03:09:10.200Z,100.00
2022-08-02T03:11:39.305Z,100.00
2022-08-02T03:14:09.530Z,100.00
2022-08-02T03:16:43.146Z,100.00
2022-08-02T03:19:09.881Z,100.00
2022-08-02T03:21:36.437Z,100.00
2022-08-02T03:24:03.173Z,100.00
2022-08-02T03:26:29.768Z,99.92
2022-08-02T03:28:56.444Z,100.00
2022-08-02T03:31:23.064Z,100.00
2022-08-02T03:33:49.742Z,100.00
2022-08-02T03:36:19.447Z,100.00
2022-08-02T03:38:46.349Z,100.00
2022-08-02T03:41:14.301Z,100.00
2022-08-02T03:43:41.298Z,100.00
2022-08-02T03:46:08.821Z,100.00
2022-08-02T03:48:36.966Z,100.00
2022-08-02T03:51:03.837Z,100.00
2022-08-02T03:53:31.407Z,100.00
2022-08-02T03:55:58.493Z,100.00
2022-08-02T03:58:25.429Z,100.00
2022-08-02T04:00:53.669Z,100.00
2022-08-02T04:03:20.698Z,100.00
2022-08-02T04:05:59.405Z,100.00
2022-08-02T04:08:36.263Z,100.00
2022-08-02T04:11:23.313Z,100.00
2022-08-02T04:13:50.038Z,100.00
2022-08-02T04:16:21.866Z,100.00
2022-08-02T04:18:53.346Z,100.00
2022-08-02T04:21:21.397Z,100.00
2022-08-02T04:23:49.022Z,100.00
2022-08-02T04:26:15.773Z,100.00
2022-08-02T04:28:43.677Z,100.00
2022-08-02T04:31:10.521Z,100.00
2022-08-02T04:33:37.843Z,100.00
2022-08-02T04:36:06.742Z,100.00
2022-08-02T04:38:33.681Z,100.00
2022-08-02T04:41:00.372Z,100.00
2022-08-02T04:43:26.992Z,100.00
2022-08-02T04:45:55.239Z,100.00
2022-08-02T04:48:22.670Z,100.00
2022-08-02T04:50:49.506Z,100.00
2022-08-02T04:53:16.438Z,100.00
2022-08-02T04:55:43.009Z,100.00
2022-08-02T04:58:36.971Z,100.00
2022-08-02T05:00:56.307Z,100.00
2022-08-02T05:03:22.924Z,100.00
2022-08-02T05:05:49.579Z,100.00
2022-08-02T05:08:16.193Z,100.00
2022-08-02T05:10:42.744Z,100.00
2022-08-02T05:13:09.368Z,100.00
2022-08-02T05:15:36.283Z,100.00
2022-08-02T05:18:02.900Z,100.00
2022-08-02T05:20:29.583Z,100.00
2022-08-02T05:22:56.210Z,100.00
2022-08-02T05:25:22.823Z,100.00
2022-08-02T05:27:49.656Z,100.00
2022-08-02T05:30:16.228Z,100.00
2022-08-02T05:32:47.923Z,100.00
2022-08-02T05:35:18.141Z,100.00
2022-08-02T05:37:44.702Z,100.00
2022-08-02T05:40:15.292Z,100.00
2022-08-02T05:42:42.852Z,100.00
2022-08-02T05:45:10.026Z,100.00
2022-08-02T05:47:37.027Z,100.00
2022-08-02T05:50:05.870Z,100.00
2022-08-02T05:52:53.329Z,100.00
2022-08-02T05:55:45.128Z,100.00
2022-08-02T05:58:23.395Z,100.00
2022-08-02T06:00:50.399Z,100.00
2022-08-02T06:03:30.788Z,100.00
2022-08-02T06:06:06.785Z,100.00
2022-08-02T06:08:38.767Z,100.00
2022-08-02T06:11:06.684Z,100.00
2022-08-02T06:13:33.709Z,100.00
2022-08-02T06:16:01.056Z,100.00
2022-08-02T06:18:29.283Z,100.00
2022-08-02T06:20:59.294Z,100.00
2022-08-02T06:23:57.767Z,98.99
2022-08-02T06:26:29.264Z,98.86
2022-08-02T06:28:57.886Z,99.07
2022-08-02T06:31:24.590Z,99.13
2022-08-02T06:33:51.353Z,99.20
2022-08-02T06:36:50.217Z,98.00
2022-08-02T06:39:24.031Z,97.30
2022-08-02T06:41:52.516Z,97.08
2022-08-02T06:44:45.854Z,96.97
2022-08-02T06:47:11.550Z,97.01
2022-08-02T06:49:52.979Z,95.13
2022-08-02T06:52:29.388Z,96.02
2022-08-02T06:54:58.609Z,95.49
2022-08-02T06:57:25.259Z,94.73
2022-08-02T06:59:52.493Z,94.67
2022-08-02T07:02:19.185Z,94.13
2022-08-02T07:04:45.912Z,95.51
2022-08-02T07:07:12.564Z,94.42
2022-08-02T07:09:39.206Z,92.30
2022-08-02T07:12:22.824Z,92.20
2022-08-02T07:14:49.538Z,92.52
2022-08-02T07:17:16.327Z,91.63
2022-08-02T07:19:43.171Z,89.53
2022-08-02T07:22:09.856Z,89.29
2022-08-02T07:24:36.519Z,89.81
2022-08-02T07:27:12.082Z,89.14
2022-08-02T07:29:45.220Z,86.87
2022-08-02T07:32:18.139Z,86.16
2022-08-02T07:34:50.943Z,85.18
2022-08-02T07:37:35.015Z,84.66
2022-08-02T07:40:12.444Z,85.16
2022-08-02T07:42:41.333Z,85.17
2022-08-02T07:45:08.443Z,84.24
2022-08-02T07:47:39.466Z,83.06
2022-08-02T07:50:07.360Z,81.82
2022-08-02T07:52:34.041Z,80.13
2022-08-02T07:55:00.652Z,80.06
2022-08-02T07:57:27.254Z,78.14
2022-08-02T07:59:53.948Z,79.86
2022-08-02T08:02:20.546Z,77.50
2022-08-02T08:04:47.437Z,78.06
2022-08-02T08:07:14.051Z,77.33
2022-08-02T08:09:42.211Z,76.16
2022-08-02T08:12:10.428Z,76.14
2022-08-02T08:14:38.377Z,74.79
2022-08-02T08:17:06.305Z,75.42
2022-08-02T08:19:50.326Z,74.61
2022-08-02T08:22:19.015Z,74.07
2022-08-02T08:24:45.706Z,73.03
2022-08-02T08:27:14.862Z,71.21
2022-08-02T08:29:45.251Z,71.14
2022-08-02T08:32:17.617Z,69.93
2022-08-02T08:34:45.775Z,70.09
2022-08-02T08:37:17.195Z,69.00
2022-08-02T08:39:53.784Z,69.23
2022-08-02T08:42:28.171Z,63.57
2022-08-02T08:44:57.142Z,61.36
2022-08-02T08:47:24.973Z,61.37
2022-08-02T08:49:53.468Z,62.88
2022-08-02T08:52:24.225Z,61.91
2022-08-02T08:54:51.618Z,61.51
2022-08-02T08:57:20.476Z,60.77
2022-08-02T08:59:47.308Z,59.33
2022-08-02T09:02:16.811Z,59.11
2022-08-02T09:04:54.798Z,59.09
2022-08-02T09:07:23.640Z,58.34
2022-08-02T09:09:50.431Z,57.98
2022-08-02T09:12:18.094Z,57.93
2022-08-02T09:14:46.619Z,58.86
2022-08-02T09:17:18.116Z,58.73
2022-08-02T09:19:46.153Z,58.88
2022-08-02T09:22:15.086Z,58.85
2022-08-02T09:24:50.348Z,59.85
2022-08-02T09:27:22.138Z,59.35
2022-08-02T09:30:12.188Z,59.64
2022-08-02T09:32:48.228Z,60.37
2022-08-02T09:36:06.265Z,58.76
2022-08-02T09:38:17.963Z,58.18
2022-08-02T09:40:44.674Z,59.49
2022-08-02T09:43:11.341Z,56.77
2022-08-02T09:45:38.148Z,56.63
2022-08-02T09:48:08.987Z,56.53
2022-08-02T09:50:42.622Z,55.70
2022-08-02T09:53:14.101Z,57.58
2022-08-02T09:55:42.204Z,56.88
2022-08-02T09:58:21.856Z,57.57
2022-08-02T10:01:01.906Z,56.82
2022-08-02T10:03:35.243Z,57.58
2022-08-02T10:06:04.814Z,55.39
2022-08-02T10:08:33.068Z,56.81
2022-08-02T10:11:04.293Z,54.82
2022-08-02T10:13:32.859Z,56.20
2022-08-02T10:15:59.654Z,57.34
2022-08-02T10:18:38.958Z,53.92
2022-08-02T10:21:10.813Z,55.33
2022-08-02T10:23:39.646Z,57.92
2022-08-02T10:26:08.201Z,54.47
2022-08-02T10:28:35.312Z,53.10
2022-08-02T10:31:04.741Z,52.31
2022-08-02T10:33:35.061Z,52.21
2022-08-02T10:36:04.475Z,49.91
2022-08-02T10:38:34.872Z,49.91
2022-08-02T10:41:01.536Z,50.46
2022-08-02T10:43:47.861Z,50.49
2022-08-02T10:46:40.727Z,47.07
2022-08-02T10:49:37.947Z,47.96
2022-08-02T10:52:10.702Z,48.31
2022-08-02T10:54:41.053Z,46.88
2022-08-02T10:57:48.748Z,44.34
2022-08-02T11:00:27.442Z,45.10
2022-08-02T11:02:54.036Z,44.46
2022-08-02T11:05:43.207Z,43.90
2022-08-02T11:08:21.844Z,42.46
2022-08-02T11:10:48.609Z,43.12
2022-08-02T11:13:17.898Z,42.13
2022-08-02T11:16:01.814Z,45.13
2022-08-02T11:19:07.242Z,41.40
2022-08-02T11:21:35.166Z,42.12
2022-08-02T11:24:36.073Z,41.57
2022-08-02T11:27:04.835Z,41.95
2022-08-02T11:29:33.257Z,41.72
2022-08-02T11:32:06.243Z,43.21
2022-08-02T11:34:37.598Z,42.69
2022-08-02T11:37:05.102Z,42.05
2022-08-02T11:39:31.953Z,41.57
2022-08-02T11:42:00.121Z,41.64
2022-08-02T11:44:29.051Z,41.38
2022-08-02T11:47:00.840Z,42.50
2022-08-02T11:49:27.989Z,42.43
2022-08-02T11:52:02.066Z,41.89
2022-08-02T11:54:38.103Z,40.16
2022-08-02T11:57:22.833Z,41.15
2022-08-02T11:59:54.771Z,40.84
2022-08-02T12:02:29.273Z,38.60
2022-08-02T12:05:00.624Z,38.21
2022-08-02T12:07:35.438Z,38.32
2022-08-02T12:10:08.537Z,39.66
2022-08-02T12:12:52.129Z,39.13
2022-08-02T12:15:37.432Z,39.02
2022-08-02T12:18:28.036Z,37.45
2022-08-02T12:20:54.694Z,37.92
2022-08-02T12:23:24.284Z,37.52
2022-08-02T12:26:04.460Z,36.38
2022-08-02T12:28:34.269Z,37.29
2022-08-02T12:31:01.731Z,38.68
2022-08-02T12:33:30.459Z,38.27
2022-08-02T12:35:59.773Z,37.30
2022-08-02T12:38:30.247Z,35.05
2022-08-02T12:40:56.798Z,33.57
2022-08-02T12:43:24.402Z,33.08
2022-08-02T12:45:53.527Z,33.91
2022-08-02T12:48:56.467Z,34.64
2022-08-02T12:51:55.597Z,29.90
2022-08-02T12:54:31.349Z,30.64
2022-08-02T12:57:10.892Z,31.73
2022-08-02T12:59:39.788Z,31.67
2022-08-02T13:02:09.599Z,32.30
2022-08-02T13:04:36.359Z,31.38
2022-08-02T13:07:03.591Z,34.64
2022-08-02T13:09:38.907Z,32.22
2022-08-02T13:12:06.683Z,32.23
2022-08-02T13:14:40.396Z,33.11
2022-08-02T13:17:09.166Z,32.94
2022-08-02T13:19:37.001Z,33.38
2022-08-02T13:22:04.173Z,33.56
2022-08-02T13:24:39.447Z,34.43
2022-08-02T13:27:21.007Z,33.55
2022-08-02T13:29:49.105Z,33.45
2022-08-02T13:32:16.463Z,33.92
2022-08-02T13:34:43.775Z,34.51
2022-08-02T13:37:10.564Z,35.05
2022-08-02T13:39:37.221Z,34.34
2022-08-02T13:42:04.162Z,32.68
2022-08-02T13:44:32.807Z,32.93
2022-08-02T13:46:59.455Z,32.62
2022-08-02T13:49:50.160Z,33.13
2022-08-02T13:52:13.360Z,33.48
2022-08-02T13:54:40.398Z,33.68
2022-08-02T13:57:07.072Z,34.10
2022-08-02T13:59:56.906Z,33.69
2022-08-02T14:02:20.326Z,34.85
2022-08-02T14:04:50.845Z,34.22
2022-08-02T14:07:17.460Z,34.31
2022-08-02T14:09:44.100Z,35.11
2022-08-02T14:12:11.519Z,34.59
2022-08-02T14:14:38.459Z,35.16
2022-08-02T14:17:05.385Z,35.74
2022-08-02T14:19:32.047Z,34.21
2022-08-02T14:22:11.291Z,36.10
2022-08-02T14:24:39.759Z,35.01
2022-08-02T14:27:10.163Z,33.65
2022-08-02T14:29:36.830Z,35.10
2022-08-02T14:32:03.556Z,33.95
2022-08-02T14:34:30.162Z,34.01
2022-08-02T14:36:56.895Z,34.36
2022-08-02T14:39:23.582Z,34.51
2022-08-02T14:41:59.899Z,33.27
2022-08-02T14:44:28.313Z,35.33
2022-08-02T14:46:55.415Z,34.85
2022-08-02T14:49:25.987Z,34.69
2022-08-02T14:51:57.083Z,34.11
2022-08-02T14:54:30.927Z,33.43
2022-08-02T14:57:01.164Z,34.01
2022-08-02T14:59:28.504Z,34.36
2022-08-02T15:01:55.258Z,35.09
2022-08-02T15:04:22.018Z,34.93
2022-08-02T15:06:48.657Z,35.49
2022-08-02T15:09:15.245Z,34.26
2022-08-02T15:11:47.594Z,36.25
2022-08-02T15:14:22.081Z,36.36
2022-08-02T15:16:57.122Z,36.50
2022-08-02T15:19:28.699Z,36.07
2022-08-02T15:22:16.274Z,36.00
2022-08-02T15:24:45.724Z,36.46
2022-08-02T15:27:14.561Z,37.04
2022-08-02T15:29:42.513Z,36.01
2022-08-02T15:32:09.457Z,35.57
2022-08-02T15:34:36.237Z,36.87
2022-08-02T15:37:02.889Z,36.82
2022-08-02T15:39:29.949Z,37.22
2022-08-02T15:41:56.681Z,36.49
2022-08-02T15:44:23.328Z,37.29
2022-08-02T15:46:51.822Z,37.15
2022-08-02T15:49:20.835Z,36.71
2022-08-02T15:51:47.526Z,37.26
2022-08-02T15:54:14.077Z,39.81
2022-08-02T15:56:40.710Z,40.76
2022-08-02T15:59:07.332Z,39.56
2022-08-02T16:01:38.333Z,38.68
2022-08-02T16:04:07.542Z,40.31
2022-08-02T16:06:35.119Z,41.14
2022-08-02T16:09:01.947Z,39.96
2022-08-02T16:11:28.608Z,40.44
2022-08-02T16:13:55.493Z,40.83
2022-08-02T16:16:32.932Z,39.33
2022-08-02T16:19:47.881Z,40.22
2022-08-02T16:21:48.451Z,39.09
2022-08-02T16:24:15.024Z,38.69
2022-08-02T16:26:41.646Z,39.21
2022-08-02T16:29:08.910Z,38.17
2022-08-02T16:31:40.031Z,37.45
2022-08-02T16:34:08.832Z,37.97
2022-08-02T16:36:35.493Z,37.72
2022-08-02T16:39:02.047Z,36.12
2022-08-02T16:44:17.107Z,38.12
2022-08-02T16:46:44.988Z,39.16
2022-08-02T16:50:03.998Z,38.42
2022-08-02T16:51:58.822Z,39.27
2022-08-02T16:54:25.384Z,37.84
2022-08-02T16:56:53.318Z,37.73
2022-08-02T16:59:19.935Z,37.88
2022-08-02T17:02:10.875Z,36.71
2022-08-02T17:04:38.629Z,38.05
2022-08-02T17:08:06.382Z,38.46
2022-08-02T17:10:03.922Z,39.57
2022-08-02T17:12:33.515Z,40.76
2022-08-02T17:15:00.837Z,40.68
2022-08-02T17:17:38.292Z,41.01
2022-08-02T17:20:08.869Z,41.18
2022-08-02T17:22:36.950Z,41.45
2022-08-02T17:25:04.437Z,42.83
2022-08-02T17:27:31.133Z,42.16
2022-08-02T17:29:59.750Z,41.44
2022-08-02T17:32:29.143Z,41.25
2022-08-02T17:34:59.891Z,39.88
2022-08-02T17:37:42.979Z,41.04
2022-08-02T17:40:21.551Z,41.38
2022-08-02T17:42:50.375Z,43.51
2022-08-02T17:45:25.867Z,44.57
2022-08-02T17:50:41.578Z,44.14
2022-08-02T17:53:15.545Z,43.62
2022-08-02T17:55:42.711Z,44.22
2022-08-02T17:58:12.541Z,44.60
2022-08-02T18:00:39.447Z,46.11
2022-08-02T18:03:09.899Z,45.08
2022-08-02T18:08:24.141Z,46.27
2022-08-02T18:10:52.885Z,46.20
2022-08-02T18:13:19.780Z,46.22
2022-08-02T18:15:46.343Z,46.21
2022-08-02T18:18:14.617Z,46.43
2022-08-02T18:20:41.731Z,45.72
2022-08-02T18:23:13.469Z,46.51
2022-08-02T18:25:46.637Z,48.08
2022-08-02T18:28:14.505Z,47.57
2022-08-02T18:30:42.407Z,47.97
2022-08-02T18:35:56.020Z,47.73
2022-08-02T18:38:23.787Z,48.62
2022-08-02T18:40:51.193Z,51.92
2022-08-02T18:43:18.645Z,53.47
2022-08-02T18:46:05.548Z,53.89
2022-08-02T18:48:36.663Z,52.21
2022-08-02T18:51:06.383Z,52.60
2022-08-02T18:53:41.417Z,55.47
2022-08-02T18:56:19.604Z,59.24
2022-08-02T18:58:52.046Z,55.66
2022-08-02T19:01:32.432Z,55.11
2022-08-02T19:04:02.779Z,56.05
2022-08-02T19:06:29.852Z,60.61
2022-08-02T19:09:05.701Z,62.57
2022-08-02T19:11:47.315Z,60.85
2022-08-02T19:14:24.272Z,60.56
2022-08-02T19:16:55.620Z,57.87
2022-08-02T19:19:22.458Z,61.72
2022-08-02T19:22:17.911Z,64.12
2022-08-02T19:24:37.171Z,62.15
2022-08-02T19:27:13.986Z,63.12
2022-08-02T19:29:43.268Z,61.63
2022-08-02T19:32:40.403Z,63.20
2022-08-02T19:35:19.854Z,65.57
2022-08-02T19:37:54.116Z,65.89
2022-08-02T19:40:28.784Z,65.75
2022-08-02T19:44:26.508Z,65.92
2022-08-02T19:45:50.804Z,67.21
2022-08-02T19:48:24.556Z,67.19
2022-08-02T19:50:56.790Z,66.63
2022-08-02T19:53:28.941Z,67.13
2022-08-02T19:56:00.123Z,67.48
2022-08-02T19:58:44.975Z,66.73
2022-08-02T20:01:16.947Z,65.14
2022-08-02T20:03:52.567Z,64.85
2022-08-02T20:06:19.600Z,67.52
2022-08-02T20:08:57.087Z,68.27
2022-08-02T20:14:16.006Z,65.36
2022-08-02T20:16:42.838Z,65.77
2022-08-02T20:19:13.993Z,66.70
2022-08-02T20:21:42.776Z,68.98
2022-08-02T20:24:11.991Z,69.08
2022-08-02T20:26:47.905Z,70.17
2022-08-02T20:29:42.274Z,69.96
2022-08-02T20:32:02.668Z,72.78
2022-08-02T20:34:29.260Z,74.17
2022-08-02T20:36:56.500Z,73.34
2022-08-02T20:39:23.729Z,69.53
2022-08-02T20:42:23.253Z,70.39
2022-08-02T20:44:54.529Z,74.17
2022-08-02T20:47:27.766Z,74.42
2022-08-02T20:50:31.686Z,74.34
2022-08-02T20:53:03.271Z,73.69
2022-08-02T20:55:31.664Z,74.23
2022-08-02T20:58:01.820Z,73.87
2022-08-02T21:00:28.994Z,74.22
2022-08-02T21:02:55.789Z,75.83
2022-08-02T21:05:27.001Z,75.29
2022-08-02T21:08:13.968Z,74.88
2022-08-02T21:10:43.678Z,75.89
2022-08-02T21:13:22.475Z,74.61
2022-08-02T21:15:51.444Z,73.69
2022-08-02T21:18:25.285Z,74.25
2022-08-02T21:21:03.006Z,75.33
2022-08-02T21:23:29.746Z,74.95
2022-08-02T21:25:58.094Z,75.65
2022-08-02T21:28:43.923Z,76.57
2022-08-02T21:31:15.746Z,77.32
2022-08-02T21:33:57.063Z,79.27
2022-08-02T21:36:31.355Z,82.50
2022-08-02T21:38:59.542Z,84.13
2022-08-02T21:41:39.707Z,83.35
2022-08-02T21:44:15.800Z,82.59
2022-08-02T21:46:45.103Z,82.59
2022-08-02T21:49:12.426Z,82.23
2022-08-02T21:51:39.370Z,81.37
2022-08-02T21:54:18.666Z,80.34
2022-08-02T21:56:52.224Z,78.02
2022-08-02T21:59:26.045Z,79.05
2022-08-02T22:01:54.257Z,77.84
2022-08-02T22:04:23.866Z,78.58
2022-08-02T22:06:50.742Z,80.29
2022-08-02T22:09:43.628Z,80.99
2022-08-02T22:12:10.401Z,81.81
2022-08-02T22:14:39.896Z,82.33
2022-08-02T22:17:08.669Z,83.32
2022-08-02T22:19:36.099Z,82.65
2022-08-02T22:22:02.767Z,82.76
2022-08-02T22:24:30.004Z,82.36
2022-08-02T22:26:57.270Z,83.35
2022-08-02T22:29:23.836Z,82.95
2022-08-02T22:31:50.526Z,83.92
2022-08-02T22:34:36.730Z,80.91
2022-08-02T22:37:05.840Z,82.36
2022-08-02T22:39:34.505Z,82.56
2022-08-02T22:42:06.870Z,82.46
2022-08-02T22:44:34.936Z,79.29
2022-08-02T22:47:07.033Z,81.27
2022-08-02T22:49:45.419Z,82.39
2022-08-02T22:52:20.050Z,84.27
2022-08-02T22:54:47.040Z,83.92
2022-08-02T22:57:13.608Z,84.52
2022-08-02T22:58:34.210Z,36.94
2022-08-02T22:58:40.417Z,42.77
2022-08-02T22:58:43.167Z,45.90
2022-08-02T22:58:44.771Z,48.06
2022-08-02T22:58:54.799Z,69.74
2022-08-02T22:59:40.943Z,85.90
2022-08-02T23:02:09.439Z,86.71
2022-08-02T23:04:36.954Z,86.49
2022-08-02T23:07:04.248Z,86.93
2022-08-02T23:09:31.080Z,86.23
2022-08-02T23:11:57.654Z,86.77
2022-08-02T23:14:24.288Z,86.83
2022-08-02T23:17:09.539Z,88.02
2022-08-02T23:19:51.366Z,88.02
2022-08-02T23:22:29.738Z,85.62
2022-08-02T23:24:59.817Z,87.48
2022-08-02T23:27:26.623Z,88.00
2022-08-02T23:29:53.234Z,86.39
2022-08-02T23:32:22.771Z,85.65
2022-08-02T23:34:52.886Z,86.41
2022-08-02T23:37:19.556Z,86.46
2022-08-02T23:39:46.383Z,86.46
2022-08-02T23:42:13.061Z,88.35
2022-08-02T23:44:39.963Z,88.96
2022-08-02T23:47:06.731Z,89.06
2022-08-02T23:49:33.470Z,90.11
2022-08-02T23:52:01.850Z,90.39
2022-08-02T23:54:29.032Z,90.67
2022-08-02T23:56:55.928Z,90.68
2022-08-02T23:59:22.647Z,91.22
